Time;durP1;ratioP1;P1;durP2;ratioP2;P2;SDS_P1;SDS_P2;PMS_P1;PMS_P2;Temp;Humidity;BMP_temperature;BMP_pressure;BME280_temperature;BME280_humidity;BME280_pressure;Samples;Min_cycle;Max_cycle;Signal;HPM_P1;HPM_P2
2023/01/25 00:00:59;;;;;;;;;;;;;;;0.60;71.97;103480.37;108036;1270;67608;-84
2023/01/25 00:03:36;;;;;;;;;;;;;;;0.55;72.08;103476.47;108083;1267;124068;-83
2023/01/25 00:06:11;;;;;;;;;;;;;;;0.56;72.01;103476.38;107997;1267;59201;-84
2023/01/25 00:08:52;;;;;;;;;;;;;;;0.61;72.20;103474.63;107806;1267;124810;-84
2023/01/25 00:11:51;;;;;;;;;;;;;;;0.62;72.22;103476.47;107994;1267;75048;-84
2023/01/25 00:14:38;;;;;;;;;;;;;;;0.59;72.10;103474.75;108162;1267;124134;-85
2023/01/25 00:17:49;;;;;;;;;;;;;;;;;;;;;
2023/01/25 00:20:25;;;;;;;;;;;;;;;0.53;72.09;103475.88;108116;1267;124238;-84
2023/01/25 00:23:04;;;;;;;;;;;;;;;0.50;72.14;103475.79;108140;1268;60801;-84
2023/01/25 00:25:35;;;;;;;;;;;;;;;0.48;72.25;103467.33;107986;1266;124363;-84
2023/01/25 00:28:02;;;;;;;;;;;;;;;0.47;72.40;103458.86;108121;1267;66371;-85
2023/01/25 00:30:33;;;;;;;;;;;;;;;0.45;72.08;103449.86;108056;1281;72296;-85
2023/01/25 00:33:16;;;;;;;;;;;;;;;0.44;72.07;103452.34;108068;1267;124855;-85
2023/01/25 00:35:43;;;;;;;;;;;;;;;0.42;72.36;103449.59;108226;1267;60424;-85
2023/01/25 00:38:46;;;;;;;;;;;;;;;0.41;72.25;103449.56;108009;1265;124064;-84
2023/01/25 00:41:22;;;;;;;;;;;;;;;0.38;72.23;103453.30;107589;1274;68181;-84
2023/01/25 00:43:51;;;;;;;;;;;;;;;0.35;72.18;103449.98;107489;1272;125813;-84
2023/01/25 00:46:20;;;;;;;;;;;;;;;0.33;72.12;103442.88;107582;1272;59140;-84
2023/01/25 00:48:46;;;;;;;;;;;;;;;0.34;72.35;103434.23;107492;1276;59528;-84
2023/01/25 00:51:17;;;;;;;;;;;;;;;0.32;72.23;103428.95;107407;1274;125054;-85
2023/01/25 00:53:44;;;;;;;;;;;;;;;0.30;72.35;103429.48;107401;1273;67151;-85
2023/01/25 00:56:17;;;;;;;;;;;;;;;0.33;72.28;103427.67;107498;1273;125630;-84
2023/01/25 00:58:43;;;;;;;;;;;;;;;0.32;72.27;103426.69;107553;1273;59418;-85
2023/01/25 01:01:13;;;;;;;;;;;;;;;0.31;72.29;103422.47;107357;1273;60552;-85
2023/01/25 01:03:40;;;;;;;;;;;;;;;0.30;72.22;103421.34;107411;1272;126659;-86
2023/01/25 01:06:08;;;;;;;;;;;;;;;0.30;72.22;103414.38;107556;1272;67119;-87
2023/01/25 01:08:41;;;;;;;;;;;;;;;0.30;72.32;103406.86;106994;1289;125411;-85
2023/01/25 01:11:11;;;;;;;;;;;;;;;0.29;72.22;103405.50;107637;1274;59143;-86
2023/01/25 01:13:38;;;;;;;;;;;;;;;0.26;72.19;103401.55;107357;1272;125256;-86
2023/01/25 01:16:10;;;;;;;;;;;;;;;0.25;72.14;103400.38;107586;1267;74279;-86
2023/01/25 01:18:41;;;;;;;;;;;;;;;0.21;72.19;103392.93;108016;1267;67382;-86
2023/01/25 01:21:17;;;;;;;;;;;;;;;0.16;72.06;103387.83;107968;1272;125678;-86
2023/01/25 01:23:44;;;;;;;;;;;;;;;0.08;71.92;103377.14;108207;1267;60065;-86
2023/01/25 01:26:18;;;;;;;;;;;;;;;0.00;72.09;103376.46;108137;1267;124104;-86
2023/01/25 01:28:45;;;;;;;;;;;;;;;-0.04;71.95;103374.27;108109;1267;73976;-86
2023/01/25 01:31:20;;;;;;;;;;;;;;;-0.10;71.97;103373.91;107912;1267;67067;-86
2023/01/25 01:33:48;;;;;;;;;;;;;;;-0.16;72.19;103371.52;108066;1268;73103;-85
2023/01/25 01:36:39;;;;;;;;;;;;;;;-0.19;72.25;103374.54;107893;1267;59178;-86
2023/01/25 01:39:20;;;;;;;;;;;;;;;;;;;;;
2023/01/25 01:41:52;;;;;;;;;;;;;;;-0.27;72.36;103380.39;108138;1266;74748;-85
2023/01/25 01:44:21;;;;;;;;;;;;;;;-0.29;72.41;103385.02;107922;1273;124822;-84
2023/01/25 01:46:50;;;;;;;;;;;;;;;-0.29;72.35;103387.04;108119;1265;72859;-83
2023/01/25 01:49:17;;;;;;;;;;;;;;;-0.31;72.47;103387.75;108025;1267;59382;-84
2023/01/25 01:51:44;;;;;;;;;;;;;;;-0.30;72.55;103378.98;108238;1267;124528;-86
2023/01/25 01:54:14;;;;;;;;;;;;;;;-0.31;72.36;103379.61;108223;1267;73421;-84
2023/01/25 01:56:50;;;;;;;;;;;;;;;-0.32;72.30;103382.95;108138;1267;125883;-84
2023/01/25 01:59:16;;;;;;;;;;;;;;;-0.36;72.50;103379.40;107993;1267;71561;-84
2023/01/25 02:01:43;;;;;;;;;;;;;;;-0.38;72.67;103378.77;107896;1272;126167;-83
2023/01/25 02:04:10;;;;;;;;;;;;;;;-0.39;72.60;103376.14;108167;1264;60855;-83
2023/01/25 02:06:51;;;;;;;;;;;;;;;-0.37;72.69;103373.32;108181;1266;73102;-84
2023/01/25 02:09:18;;;;;;;;;;;;;;;-0.31;72.67;103362.09;107935;1266;126202;-84
2023/01/25 02:11:45;;;;;;;;;;;;;;;-0.29;72.74;103355.00;108003;1273;72723;-85
2023/01/25 02:14:12;;;;;;;;;;;;;;;-0.24;72.74;103351.89;108085;1266;125249;-84
2023/01/25 02:16:40;;;;;;;;;;;;;;;-0.22;72.59;103349.02;108104;1267;59627;-83
2023/01/25 02:19:07;;;;;;;;;;;;;;;-0.21;72.46;103345.09;108097;1267;75150;-83
2023/01/25 02:21:36;;;;;;;;;;;;;;;-0.25;72.47;103348.04;108023;1267;126991;-84
2023/01/25 02:24:06;;;;;;;;;;;;;;;-0.29;72.47;103347.73;108084;1267;71437;-83
2023/01/25 02:26:33;;;;;;;;;;;;;;;-0.30;72.45;103351.36;108029;1267;125395;-84
2023/01/25 02:29:01;;;;;;;;;;;;;;;-0.32;72.27;103344.59;108241;1266;60683;-83
2023/01/25 02:31:28;;;;;;;;;;;;;;;-0.32;72.52;103344.95;107976;1265;124947;-84
2023/01/25 02:33:55;;;;;;;;;;;;;;;-0.32;72.47;103346.04;108250;1270;67603;-84
2023/01/25 02:36:25;;;;;;;;;;;;;;;-0.30;72.69;103345.85;108074;1266;73227;-84
2023/01/25 02:38:53;;;;;;;;;;;;;;;-0.28;72.71;103340.91;108145;1266;125776;-83
2023/01/25 02:41:27;;;;;;;;;;;;;;;-0.26;72.60;103335.09;108074;1273;60185;-84
2023/01/25 02:43:54;;;;;;;;;;;;;;;-0.30;72.47;103337.77;107896;1267;125973;-84
2023/01/25 02:46:26;;;;;;;;;;;;;;;-0.30;72.52;103335.20;108104;1269;65798;-84
2023/01/25 02:48:53;;;;;;;;;;;;;;;-0.31;72.39;103335.10;108151;1271;70094;-83
2023/01/25 02:51:21;;;;;;;;;;;;;;;-0.33;72.25;103332.42;108113;1267;125543;-83
2023/01/25 02:53:48;;;;;;;;;;;;;;;-0.35;72.37;103331.80;108282;1267;60637;-83
2023/01/25 02:56:15;;;;;;;;;;;;;;;-0.38;72.42;103325.48;108050;1267;125263;-84
2023/01/25 02:58:42;;;;;;;;;;;;;;;-0.40;72.42;103320.62;108145;1266;68332;-84
2023/01/25 03:01:09;;;;;;;;;;;;;;;-0.40;72.61;103318.43;108179;1267;71456;-84
2023/01/25 03:03:36;;;;;;;;;;;;;;;-0.41;72.44;103315.75;108086;1267;126194;-84
2023/01/25 03:06:03;;;;;;;;;;;;;;;-0.45;72.43;103313.52;108110;1270;60890;-84
2023/01/25 03:08:30;;;;;;;;;;;;;;;-0.46;72.46;103317.88;107980;1267;124307;-84
2023/01/25 03:10:57;;;;;;;;;;;;;;;-0.46;72.61;103312.85;108176;1267;66600;-84
2023/01/25 03:13:24;;;;;;;;;;;;;;;-0.46;72.57;103311.45;107940;1265;125515;-83
2023/01/25 03:15:51;;;;;;;;;;;;;;;-0.46;72.60;103310.30;108037;1266;59554;-84
2023/01/25 03:18:18;;;;;;;;;;;;;;;-0.47;72.55;103303.59;108167;1267;61025;-84
2023/01/25 03:20:45;;;;;;;;;;;;;;;-0.48;72.59;103306.55;108198;1266;125639;-83
2023/01/25 03:23:12;;;;;;;;;;;;;;;-0.49;72.71;103306.02;108121;1267;65907;-84
2023/01/25 03:25:39;;;;;;;;;;;;;;;-0.51;72.54;103301.80;108099;1265;126162;-84
2023/01/25 03:28:06;;;;;;;;;;;;;;;-0.52;72.56;103296.14;108134;1266;59108;-84
2023/01/25 03:30:32;;;;;;;;;;;;;;;-0.53;72.49;103293.63;108285;1265;59324;-84
2023/01/25 03:32:59;;;;;;;;;;;;;;;-0.52;72.53;103289.48;108037;1267;124982;-84
2023/01/25 03:35:26;;;;;;;;;;;;;;;-0.51;72.73;103292.55;108150;1265;66791;-84
2023/01/25 03:37:53;;;;;;;;;;;;;;;-0.49;72.61;103286.90;107948;1268;125835;-84
2023/01/25 03:40:20;;;;;;;;;;;;;;;-0.49;72.63;103277.48;108233;1265;59502;-84
2023/01/25 03:42:47;;;;;;;;;;;;;;;-0.51;72.45;103280.23;108079;1273;59998;-85
2023/01/25 03:45:13;;;;;;;;;;;;;;;-0.52;72.66;103280.63;107983;1266;126364;-85
2023/01/25 03:47:40;;;;;;;;;;;;;;;-0.53;72.50;103282.08;108199;1265;67589;-85
2023/01/25 03:50:08;;;;;;;;;;;;;;;-0.56;72.42;103272.92;107966;1267;125338;-85
2023/01/25 03:52:37;;;;;;;;;;;;;;;-0.57;72.54;103266.27;108214;1266;59617;-85
2023/01/25 03:55:04;;;;;;;;;;;;;;;-0.60;72.39;103261.17;108148;1266;59029;-85
2023/01/25 03:57:31;;;;;;;;;;;;;;;-0.61;72.54;103255.23;107860;1267;124898;-83
2023/01/25 03:59:58;;;;;;;;;;;;;;;-0.59;72.52;103251.98;108129;1267;65830;-83
2023/01/25 04:02:25;;;;;;;;;;;;;;;-0.59;72.51;103250.45;107932;1267;124919;-84
2023/01/25 04:04:52;;;;;;;;;;;;;;;-0.62;72.56;103249.59;108050;1267;59500;-84
2023/01/25 04:07:19;;;;;;;;;;;;;;;-0.63;72.68;103253.98;108057;1266;59727;-84
2023/01/25 04:09:48;;;;;;;;;;;;;;;-0.61;72.59;103249.65;108122;1266;77609;-84
2023/01/25 04:12:15;;;;;;;;;;;;;;;-0.62;72.57;103250.99;108240;1267;67341;-84
2023/01/25 04:14:42;;;;;;;;;;;;;;;-0.66;72.51;103250.11;107909;1267;125712;-84
2023/01/25 04:17:09;;;;;;;;;;;;;;;-0.70;72.67;103246.27;108039;1267;59399;-84
2023/01/25 04:19:36;;;;;;;;;;;;;;;-0.71;72.70;103247.69;108090;1266;124461;-84
2023/01/25 04:22:03;;;;;;;;;;;;;;;-0.72;72.84;103246.52;108032;1267;73437;-84
2023/01/25 04:24:30;;;;;;;;;;;;;;;-0.74;72.89;103243.58;108121;1266;65981;-84
2023/01/25 04:26:57;;;;;;;;;;;;;;;-0.76;72.73;103245.56;107997;1266;126090;-84
2023/01/25 04:29:24;;;;;;;;;;;;;;;-0.80;72.81;103237.03;108032;1267;59487;-84
2023/01/25 04:31:51;;;;;;;;;;;;;;;-0.82;72.94;103233.23;107978;1267;125403;-84
2023/01/25 04:34:18;;;;;;;;;;;;;;;-0.79;72.89;103227.86;108179;1267;74731;-84
2023/01/25 04:36:44;;;;;;;;;;;;;;;-0.76;73.07;103225.79;108059;1266;67412;-84
2023/01/25 04:39:11;;;;;;;;;;;;;;;-0.71;73.08;103222.71;108030;1267;125305;-84
2023/01/25 04:41:38;;;;;;;;;;;;;;;-0.71;73.02;103220.65;108070;1267;59522;-84
2023/01/25 04:44:05;;;;;;;;;;;;;;;-0.70;73.05;103220.90;108003;1266;125254;-84
2023/01/25 04:46:32;;;;;;;;;;;;;;;-0.70;72.98;103220.02;108038;1267;74663;-84
2023/01/25 04:48:59;;;;;;;;;;;;;;;-0.70;72.99;103219.75;108201;1267;65554;-84
2023/01/25 04:51:26;;;;;;;;;;;;;;;-0.71;72.99;103218.94;108133;1267;124779;-83
2023/01/25 04:53:53;;;;;;;;;;;;;;;-0.71;72.94;103217.70;108160;1267;59438;-83
2023/01/25 04:56:20;;;;;;;;;;;;;;;-0.71;72.91;103211.11;108003;1266;124927;-83
2023/01/25 04:58:47;;;;;;;;;;;;;;;-0.70;72.99;103214.70;108088;1265;75294;-84
2023/01/25 05:01:13;;;;;;;;;;;;;;;-0.70;73.18;103214.41;108282;1266;66837;-85
2023/01/25 05:03:40;;;;;;;;;;;;;;;-0.69;73.04;103212.61;108090;1267;125068;-82
2023/01/25 05:06:10;;;;;;;;;;;;;;;-0.69;72.94;103214.48;108219;1266;59466;-81
2023/01/25 05:08:37;;;;;;;;;;;;;;;-0.69;73.01;103211.65;108098;1267;124333;-80
2023/01/25 05:11:04;;;;;;;;;;;;;;;-0.69;72.99;103210.35;108301;1267;74387;-81
2023/01/25 05:13:30;;;;;;;;;;;;;;;-0.68;72.98;103208.56;108116;1266;124339;-81
2023/01/25 05:15:57;;;;;;;;;;;;;;;-0.66;73.18;103204.30;108126;1267;73258;-81
2023/01/25 05:18:24;;;;;;;;;;;;;;;-0.67;73.01;103199.06;108255;1266;59054;-81
2023/01/25 05:20:55;;;;;;;;;;;;;;;-0.71;73.06;103202.31;108064;1270;124371;-81
2023/01/25 05:23:21;;;;;;;;;;;;;;;-0.71;73.13;103200.47;108117;1273;73443;-81
2023/01/25 05:28:34;;;;;;;;;;;;;;;-0.75;73.04;103192.73;108252;1265;71454;-80
2023/01/25 05:31:04;;;;;;;;;;;;;;;-0.79;73.03;103195.08;108235;1266;60048;-81
2023/01/25 05:33:30;;;;;;;;;;;;;;;-0.81;73.05;103186.80;108095;1266;125265;-81
2023/01/25 05:35:57;;;;;;;;;;;;;;;-0.80;73.16;103185.56;108086;1267;76054;-79
2023/01/25 05:38:24;;;;;;;;;;;;;;;-0.80;73.26;103186.72;107934;1266;124796;-82
2023/01/25 05:40:51;;;;;;;;;;;;;;;-0.80;73.22;103188.66;108363;1267;72730;-81
2023/01/25 05:43:18;;;;;;;;;;;;;;;-0.80;73.29;103182.45;108542;1266;58870;-81
2023/01/25 05:45:50;;;;;;;;;;;;;;;-0.79;73.16;103185.07;108166;1265;124501;-81
2023/01/25 05:48:17;;;;;;;;;;;;;;;-0.80;73.13;103179.88;108387;1267;74757;-80
2023/01/25 05:50:44;;;;;;;;;;;;;;;-0.78;73.41;103181.44;106930;1265;124890;-80
2023/01/25 05:53:11;;;;;;;;;;;;;;;-0.80;73.23;103183.13;108183;1266;73264;-80
2023/01/25 05:55:37;;;;;;;;;;;;;;;-0.78;73.37;103180.02;106724;1267;125418;-80
2023/01/25 05:58:05;;;;;;;;;;;;;;;-0.77;73.39;103179.61;107014;1266;61272;-82
2023/01/25 06:00:31;;;;;;;;;;;;;;;-0.76;73.34;103179.90;108227;1264;75684;-81
2023/01/25 06:03:01;;;;;;;;;;;;;;;-0.72;73.49;103179.70;108118;1267;124804;-80
2023/01/25 06:05:28;;;;;;;;;;;;;;;-0.70;73.36;103181.77;108043;1267;73883;-85
2023/01/25 06:07:55;;;;;;;;;;;;;;;-0.69;73.44;103179.19;107992;1266;126099;-80
2023/01/25 06:10:22;;;;;;;;;;;;;;;-0.65;73.37;103169.77;107980;1267;59387;-81
2023/01/25 06:12:49;;;;;;;;;;;;;;;-0.64;73.23;103166.55;108063;1270;73301;-80
2023/01/25 06:15:15;;;;;;;;;;;;;;;-0.62;73.43;103168.00;108134;1266;125532;-80
2023/01/25 06:17:43;;;;;;;;;;;;;;;-0.57;73.51;103172.33;108099;1267;71352;-81
2023/01/25 06:20:10;;;;;;;;;;;;;;;-0.54;73.57;103176.48;107973;1267;125101;-81
2023/01/25 06:22:37;;;;;;;;;;;;;;;-0.50;73.41;103166.57;108148;1266;60189;-81
2023/01/25 06:25:04;;;;;;;;;;;;;;;-0.51;73.41;103165.36;108265;1267;74938;-81
2023/01/25 06:27:31;;;;;;;;;;;;;;;-0.51;73.40;103161.07;107965;1265;124685;-81
2023/01/25 06:29:58;;;;;;;;;;;;;;;-0.52;73.21;103163.19;108033;1267;71432;-81
2023/01/25 06:32:26;;;;;;;;;;;;;;;-0.54;73.11;103161.81;108125;1265;125880;-83
2023/01/25 06:34:53;;;;;;;;;;;;;;;-0.54;73.13;103153.72;108208;1266;59533;-83
2023/01/25 06:37:21;;;;;;;;;;;;;;;-0.55;73.26;103161.46;108112;1265;73374;-83
2023/01/25 06:39:49;;;;;;;;;;;;;;;-0.55;73.15;103168.36;108277;1266;65921;-83
2023/01/25 06:42:15;;;;;;;;;;;;;;;-0.55;73.22;103164.02;108069;1266;71460;-83
2023/01/25 06:44:42;;;;;;;;;;;;;;;-0.54;73.32;103157.64;107978;1267;124604;-83
2023/01/25 06:47:10;;;;;;;;;;;;;;;-0.54;73.24;103157.60;108063;1265;60553;-83
2023/01/25 06:49:37;;;;;;;;;;;;;;;-0.55;73.28;103156.35;107904;1271;124970;-83
2023/01/25 06:52:04;;;;;;;;;;;;;;;-0.55;73.10;103150.82;108083;1266;65488;-83
2023/01/25 06:54:31;;;;;;;;;;;;;;;-0.57;73.20;103146.58;108103;1266;71396;-82
2023/01/25 06:56:58;;;;;;;;;;;;;;;-0.57;73.24;103145.06;107983;1267;125745;-83
2023/01/25 06:59:24;;;;;;;;;;;;;;;-0.56;73.27;103145.50;108130;1267;59372;-83
2023/01/25 07:01:51;;;;;;;;;;;;;;;-0.57;73.16;103151.80;108090;1266;124964;-83
2023/01/25 07:04:18;;;;;;;;;;;;;;;-0.57;73.29;103149.32;108277;1266;65644;-82
2023/01/25 07:06:45;;;;;;;;;;;;;;;-0.61;73.31;103153.25;108157;1267;72758;-83
2023/01/25 07:09:13;;;;;;;;;;;;;;;-0.60;73.27;103157.85;107956;1266;125054;-83
2023/01/25 07:11:40;;;;;;;;;;;;;;;-0.59;73.47;103160.39;108108;1267;60070;-83
2023/01/25 07:14:07;;;;;;;;;;;;;;;-0.61;73.26;103160.04;108144;1266;124352;-83
2023/01/25 07:16:37;;;;;;;;;;;;;;;-0.63;73.33;103159.28;108021;1272;68868;-83
2023/01/25 07:19:04;;;;;;;;;;;;;;;-0.64;73.40;103155.72;108235;1266;72503;-83
2023/01/25 07:21:31;;;;;;;;;;;;;;;-0.62;73.46;103154.95;107950;1271;124926;-83
2023/01/25 07:24:02;;;;;;;;;;;;;;;-0.60;73.45;103150.67;108060;1267;59613;-82
2023/01/25 07:26:29;;;;;;;;;;;;;;;-0.58;73.50;103151.03;107937;1268;124822;-82
2023/01/25 07:28:56;;;;;;;;;;;;;;;-0.57;73.43;103152.77;108041;1267;67089;-82
2023/01/25 07:31:23;;;;;;;;;;;;;;;-0.56;73.55;103156.41;107949;1269;125592;-82
2023/01/25 07:33:50;;;;;;;;;;;;;;;-0.52;73.57;103150.08;108045;1268;59394;-82
2023/01/25 07:36:17;;;;;;;;;;;;;;;-0.45;73.61;103147.44;108073;1267;59560;-82
2023/01/25 07:38:44;;;;;;;;;;;;;;;-0.41;73.46;103148.52;108103;1267;124793;-83
2023/01/25 07:41:12;;;;;;;;;;;;;;;-0.41;73.42;103141.34;108198;1267;67622;-82
2023/01/25 07:43:38;;;;;;;;;;;;;;;-0.40;73.38;103140.16;107910;1267;126201;-83
2023/01/25 07:46:06;;;;;;;;;;;;;;;-0.41;73.30;103139.62;108034;1267;59386;-82
2023/01/25 07:48:33;;;;;;;;;;;;;;;-0.39;73.34;103137.70;108147;1266;60684;-82
2023/01/25 07:54:03;;;;;;;;;;;;;;;-0.34;73.47;103136.38;107626;1274;65851;-82
2023/01/25 07:56:34;;;;;;;;;;;;;;;-0.30;73.34;103132.64;107849;1266;124275;-83
2023/01/25 07:59:07;;;;;;;;;;;;;;;-0.25;73.47;103120.76;108375;1267;59159;-82
2023/01/25 08:01:35;;;;;;;;;;;;;;;-0.22;73.27;103114.73;108246;1267;126378;-82
2023/01/25 08:04:02;;;;;;;;;;;;;;;-0.17;73.29;103112.92;108312;1270;74612;-83
2023/01/25 08:06:34;;;;;;;;;;;;;;;-0.12;73.33;103109.86;108177;1266;67103;-82
2023/01/25 08:09:02;;;;;;;;;;;;;;;-0.07;73.30;103113.52;107968;1271;125077;-82
2023/01/25 08:11:29;;;;;;;;;;;;;;;-0.08;73.06;103110.13;107884;1267;59509;-83
2023/01/25 08:13:56;;;;;;;;;;;;;;;-0.11;72.95;103109.59;107976;1265;126945;-82
2023/01/25 08:16:24;;;;;;;;;;;;;;;-0.14;73.03;103105.31;108202;1266;75343;-90
2023/01/25 08:18:52;;;;;;;;;;;;;;;-0.11;73.19;103107.56;108238;1266;65771;-87
2023/01/25 08:21:19;;;;;;;;;;;;;;;-0.06;73.15;103107.06;108209;1267;125388;-81
2023/01/25 08:23:46;;;;;;;;;;;;;;;-0.04;72.98;103107.59;108184;1265;59486;-81
2023/01/25 08:26:13;;;;;;;;;;;;;;;0.01;73.18;103100.50;108029;1267;124721;-82
2023/01/25 08:28:40;;;;;;;;;;;;;;;0.08;73.02;103102.08;108135;1267;74745;-82
2023/01/25 08:31:11;;;;;;;;;;;;;;;0.12;73.11;103100.87;108132;1267;233735;-82
2023/01/25 08:33:38;;;;;;;;;;;;;;;0.21;73.10;103098.94;108051;1266;125026;-82
2023/01/25 08:36:06;;;;;;;;;;;;;;;0.27;73.02;103098.56;108331;1267;59534;-81
2023/01/25 08:38:33;;;;;;;;;;;;;;;0.24;72.76;103099.91;108168;1265;124476;-81
2023/01/25 08:41:33;;;;;;;;;;;;;;;0.18;72.69;103098.55;108261;1266;72724;-82
2023/01/25 08:44:21;;;;;;;;;;;;;;;0.16;72.83;103099.73;108080;1267;125485;-82
2023/01/25 08:46:48;;;;;;;;;;;;;;;0.24;72.87;103101.90;108065;1267;73509;-83
2023/01/25 08:49:15;;;;;;;;;;;;;;;0.32;72.92;103101.20;108060;1267;59415;-82
2023/01/25 08:51:42;;;;;;;;;;;;;;;0.43;72.84;103096.10;108137;1266;125507;-82
2023/01/25 08:54:11;;;;;;;;;;;;;;;0.52;72.84;103092.81;108133;1267;74425;-82
2023/01/25 08:56:39;;;;;;;;;;;;;;;0.57;72.63;103089.09;107988;1264;125433;-82
2023/01/25 08:59:06;;;;;;;;;;;;;;;0.63;72.55;103082.75;108115;1267;71974;-81
2023/01/25 09:01:36;;;;;;;;;;;;;;;0.70;72.60;103079.55;108092;1266;125885;-83
2023/01/25 09:04:04;;;;;;;;;;;;;;;0.73;72.26;103073.91;108247;1267;59396;-83
2023/01/25 09:06:49;;;;;;;;;;;;;;;0.81;72.47;103066.79;108236;1267;74709;-83
2023/01/25 09:12:55;;;;;;;;;;;;;;;0.90;71.92;103067.33;108257;1266;73796;-82
2023/01/25 09:15:24;;;;;;;;;;;;;;;0.91;71.96;103062.61;108082;1265;125894;-83
2023/01/25 09:17:57;;;;;;;;;;;;;;;0.97;71.94;103059.44;108367;1270;59351;-83
2023/01/25 09:20:39;;;;;;;;;;;;;;;1.06;72.00;103054.53;107727;1272;123959;-83
2023/01/25 09:23:06;;;;;;;;;;;;;;;1.12;72.00;103053.25;108512;1267;66276;-83
2023/01/25 09:25:34;;;;;;;;;;;;;;;1.14;71.85;103048.43;108286;1267;124108;-84
2023/01/25 09:28:09;;;;;;;;;;;;;;;1.16;71.87;103048.02;108206;1267;59385;-83
2023/01/25 09:30:37;;;;;;;;;;;;;;;1.24;71.91;103052.22;108240;1266;59581;-88
2023/01/25 09:33:04;;;;;;;;;;;;;;;1.27;71.81;103048.02;108250;1266;124716;-83
2023/01/25 09:35:32;;;;;;;;;;;;;;;1.30;71.52;103049.17;108173;1267;67062;-83
2023/01/25 09:37:59;;;;;;;;;;;;;;;1.36;71.68;103046.82;108190;1266;124700;-85
2023/01/25 09:40:27;;;;;;;;;;;;;;;1.44;71.68;103048.11;108125;1265;59423;-83
2023/01/25 09:42:59;;;;;;;;;;;;;;;1.53;71.65;103046.62;108118;1266;59075;-82
2023/01/25 09:45:30;;;;;;;;;;;;;;;1.61;71.49;103038.69;108363;1269;123990;-82
2023/01/25 09:48:09;;;;;;;;;;;;;;;1.61;71.31;103036.70;108243;1266;65865;-82
2023/01/25 09:50:38;;;;;;;;;;;;;;;1.59;71.09;103029.54;108214;1266;124579;-78
2023/01/25 09:53:27;;;;;;;;;;;;;;;1.66;71.44;103023.68;108170;1266;59209;-89
2023/01/25 09:59:39;;;;;;;;;;;;;;;;;;;;;
2023/01/25 10:02:39;;;;;;;;;;;;;;;1.74;70.86;103004.75;107442;1275;124721;-80
2023/01/25 10:05:07;;;;;;;;;;;;;;;1.80;71.01;102995.52;107556;1272;73404;-79
2023/01/25 10:07:43;;;;;;;;;;;;;;;1.85;70.91;102989.51;107559;1273;59203;-79
2023/01/25 10:10:11;;;;;;;;;;;;;;;1.89;70.85;102981.38;107655;1270;60041;-80
2023/01/25 10:13:12;;;;;;;;;;;;;;;1.92;70.81;102981.17;107656;1272;74509;-79
2023/01/25 10:15:54;;;;;;;;;;;;;;;1.93;70.57;102979.89;107380;1275;124824;-79
2023/01/25 10:18:39;;;;;;;;;;;;;;;1.92;70.43;102976.10;107544;1278;72802;-79
2023/01/25 10:24:49;;;;;;;;;;;;;;;2.02;70.41;102948.70;107605;1273;61024;-79
2023/01/25 10:27:26;;;;;;;;;;;;;;;2.06;70.33;102947.10;107384;1271;124619;-78
2023/01/25 10:29:55;;;;;;;;;;;;;;;2.06;70.16;102943.86;107827;1266;67080;-83
2023/01/25 10:32:26;;;;;;;;;;;;;;;2.08;70.32;102938.48;107995;1266;124599;-79
2023/01/25 10:34:54;;;;;;;;;;;;;;;2.09;70.16;102936.15;107986;1267;59484;-78
2023/01/25 10:37:22;;;;;;;;;;;;;;;2.08;70.02;102936.64;108050;1266;59832;-78
2023/01/25 10:39:53;;;;;;;;;;;;;;;2.12;70.23;102935.45;108266;1266;124973;-79
2023/01/25 10:42:20;;;;;;;;;;;;;;;2.18;70.18;102925.19;108317;1267;65779;-78
2023/01/25 10:44:47;;;;;;;;;;;;;;;2.22;70.19;102925.61;107889;1266;124950;-78
2023/01/25 10:47:17;;;;;;;;;;;;;;;2.25;70.10;102917.19;108096;1267;59607;-79
2023/01/25 10:49:48;;;;;;;;;;;;;;;2.30;70.16;102910.80;108373;1280;60504;-78
2023/01/25 10:52:16;;;;;;;;;;;;;;;2.33;70.16;102901.16;108134;1265;75918;-79
2023/01/25 10:54:45;;;;;;;;;;;;;;;2.28;69.96;102898.28;108091;1267;66188;-79
2023/01/25 10:57:25;;;;;;;;;;;;;;;2.23;69.91;102895.25;107886;1270;124550;-79
2023/01/25 11:00:54;;;;;;;;;;;;;;;2.17;69.85;102888.57;108211;1267;59509;-79
2023/01/25 11:03:57;;;;;;;;;;;;;;;2.09;69.61;102881.95;107856;1267;124239;-79
2023/01/25 11:06:28;;;;;;;;;;;;;;;1.96;69.74;102876.23;107760;1266;75573;-79
2023/01/25 11:08:55;;;;;;;;;;;;;;;1.90;69.84;102875.70;108034;1265;125540;-79
2023/01/25 11:11:23;;;;;;;;;;;;;;;1.85;69.76;102874.21;108204;1266;71166;-79
2023/01/25 11:13:54;;;;;;;;;;;;;;;1.79;69.79;102871.50;108301;1266;59610;-78
2023/01/25 11:16:32;;;;;;;;;;;;;;;1.67;69.83;102868.16;108142;1267;59825;-78
2023/01/25 11:19:02;;;;;;;;;;;;;;;1.51;69.85;102872.02;108070;1267;73401;-78
2023/01/25 11:21:31;;;;;;;;;;;;;;;1.43;69.93;102870.89;108037;1267;123963;-79
2023/01/25 11:24:00;;;;;;;;;;;;;;;1.36;70.05;102862.98;108300;1267;72723;-79
2023/01/25 11:26:29;;;;;;;;;;;;;;;1.27;69.92;102857.92;108160;1267;124921;-79
2023/01/25 11:29:10;;;;;;;;;;;;;;;1.12;69.77;102855.33;108092;1267;60415;-78
2023/01/25 11:31:40;;;;;;;;;;;;;;;1.00;69.96;102849.96;108325;1267;74701;-78
2023/01/25 11:34:12;;;;;;;;;;;;;;;0.91;70.21;102842.23;108181;1267;125098;-79
2023/01/25 11:36:49;;;;;;;;;;;;;;;0.80;70.19;102836.77;107894;1271;71527;-79
2023/01/25 11:39:23;;;;;;;;;;;;;;;0.75;70.62;102829.78;108029;1266;124271;-79
2023/01/25 11:41:57;;;;;;;;;;;;;;;0.75;70.60;102829.21;108153;1273;59558;-79
2023/01/25 11:44:38;;;;;;;;;;;;;;;0.69;70.51;102817.20;108104;1278;124967;-79
2023/01/25 11:47:17;;;;;;;;;;;;;;;0.66;70.62;102809.16;108193;1267;67380;-79
2023/01/25 11:50:02;;;;;;;;;;;;;;;0.66;70.95;102801.90;108106;1267;71668;-78
2023/01/25 11:53:03;;;;;;;;;;;;;;;0.66;70.95;102794.52;108343;1266;59332;-78
2023/01/25 11:56:09;;;;;;;;;;;;;;;0.72;71.16;102788.89;108355;1265;59440;-78
2023/01/25 11:59:07;;;;;;;;;;;;;;;0.79;71.08;102779.52;108172;1266;73829;-78
2023/01/25 12:02:38;;;;;;;;;;;;;;;0.85;71.21;102774.87;108169;1267;125022;-80
2023/01/25 12:05:52;;;;;;;;;;;;;;;0.88;71.20;102771.20;108151;1267;73049;-80
2023/01/25 12:09:07;;;;;;;;;;;;;;;0.95;71.39;102763.45;108039;1270;124764;-77
2023/01/25 12:12:10;;;;;;;;;;;;;;;1.00;71.22;102756.24;108157;1268;60125;-78
2023/01/25 12:14:52;;;;;;;;;;;;;;;0.99;70.94;102749.14;108076;1266;124277;-78
2023/01/25 12:17:41;;;;;;;;;;;;;;;0.98;70.92;102746.60;108269;1268;65563;-78
2023/01/25 12:20:40;;;;;;;;;;;;;;;0.92;70.86;102739.30;108157;1267;124591;-78
2023/01/25 12:23:31;;;;;;;;;;;;;;;0.90;71.16;102730.58;108316;1266;60205;-78
2023/01/25 12:26:35;;;;;;;;;;;;;;;0.94;71.26;102720.61;108190;1267;124412;-78
2023/01/25 12:29:32;;;;;;;;;;;;;;;0.97;71.18;102718.96;108237;1266;75101;-78
2023/01/25 12:32:21;;;;;;;;;;;;;;;0.98;71.32;102712.67;108071;1267;124723;-79
2023/01/25 12:35:24;;;;;;;;;;;;;;;1.03;71.32;102711.98;108251;1267;71823;-79
2023/01/25 12:37:59;;;;;;;;;;;;;;;1.07;71.15;102701.61;108203;1267;59115;-78
2023/01/25 12:40:58;;;;;;;;;;;;;;;1.10;71.25;102699.68;108122;1267;59432;-78
2023/01/25 12:43:41;;;;;;;;;;;;;;;1.09;71.02;102698.34;108180;1266;74979;-78
2023/01/25 12:46:24;;;;;;;;;;;;;;;1.03;70.93;102692.61;108007;1267;125282;-79
2023/01/25 12:49:22;;;;;;;;;;;;;;;1.01;70.90;102693.27;108178;1267;73079;-79
2023/01/25 12:52:10;;;;;;;;;;;;;;;0.98;70.94;102689.19;107909;1266;124514;-79
2023/01/25 12:55:25;;;;;;;;;;;;;;;0.95;71.03;102684.11;108253;1267;59425;-79
2023/01/25 12:58:50;;;;;;;;;;;;;;;0.96;71.10;102686.77;108084;1267;73359;-78
2023/01/25 13:01:35;;;;;;;;;;;;;;;0.97;71.25;102686.54;108172;1267;67377;-78
2023/01/25 13:04:15;;;;;;;;;;;;;;;1.01;71.12;102681.48;108054;1271;124840;-78
2023/01/25 13:06:54;;;;;;;;;;;;;;;0.98;70.90;102669.66;108299;1267;59468;-78
2023/01/25 13:09:29;;;;;;;;;;;;;;;0.93;71.02;102668.02;107998;1267;124811;-79
2023/01/25 13:12:09;;;;;;;;;;;;;;;0.90;71.02;102669.46;108182;1268;75203;-79
2023/01/25 13:15:21;;;;;;;;;;;;;;;0.91;71.23;102668.15;108085;1268;125195;-78